KBGD/BGD METAR and TAF weather

Enter ICAO airport designator
Station Type Date Time Source
KBGD METAR 2023/02/05 23:51 UTC NOAA

KBGD 052351Z AUTO 10010G18KT 10SM CLR 18/M06 A2995 RMK AO2 SLP133 T01781056 10211 20150 56012


Station Type Date Time Source
KBGD Decoded METAR 2023/02/05 23:51 UTC NOAA

BORGER HUTCHINSON CO AIRPORT , TX, United States (KBGD) 35-42N 101-24W 927M
Feb 05, 2023 - 06:51 PM EST / 2023.02.05 2351 UTC
Wind: from the E (100 degrees) at 12 MPH (10 KT) gusting to 21 MPH (18 KT):0
Visibility: 10 mile(s):0
Sky conditions: clear
Temperature: 64.0 F (17.8 C)
Dew Point: 21.9 F (-5.6 C)
Relative Humidity: 19%
Pressure (altimeter): 29.95 in. Hg (1014 hPa)
Pressure tendency: 0.04 inches (1.2 hPa) lower than three hours ago
ob: KBGD 052351Z AUTO 10010G18KT 10SM CLR 18/M06 A2995 RMK AO2 SLP133 T01781056 10211 20150 56012
cycle: 0

Station Type Date Time Source
KBGD TAF UTC NOAA

Error!

Example: see airport list